Time;durP1;ratioP1;P1;durP2;ratioP2;P2;SDS_P1;SDS_P2;PMS_P1;PMS_P2;Temp;Humidity;BMP_temperature;BMP_pressure;BME280_temperature;BME280_humidity;BME280_pressure;Samples;Min_cycle;Max_cycle;Signal;HPM_P1;HPM_P2
2023/04/01 00:00:09;;;;;;;2.90;2.70;;;10.70;99.90;;;;;;10458065;28;20212;-79
2023/04/01 00:05:16;;;;;;;2.07;1.87;;;10.80;99.90;;;;;;10458751;28;20197;-78
2023/04/01 00:10:19;;;;;;;1.93;1.80;;;10.70;99.90;;;;;;10464623;28;20210;-79
2023/04/01 00:15:21;;;;;;;1.70;1.63;;;10.80;99.90;;;;;;10468246;28;20240;-79
2023/04/01 00:20:24;;;;;;;3.17;2.40;;;10.80;99.90;;;;;;10449174;28;20685;-78
2023/04/01 00:25:28;;;;;;;2.20;2.03;;;10.80;99.90;;;;;;10449020;28;20197;-82
2023/04/01 00:30:30;;;;;;;5.03;2.30;;;10.90;99.90;;;;;;10466085;28;20228;-80
2023/04/01 00:35:33;;;;;;;1.90;1.80;;;10.90;99.90;;;;;;10465550;28;20225;-80
2023/04/01 00:40:38;;;;;;;5.23;2.30;;;10.90;99.90;;;;;;10447382;28;20219;-79
2023/04/01 00:45:42;;;;;;;2.30;1.90;;;10.90;99.90;;;;;;10461888;28;20200;-77
2023/04/01 00:50:49;;;;;;;2.57;2.00;;;10.90;99.90;;;;;;10464805;28;20241;-79
2023/04/01 00:55:57;;;;;;;4.00;2.00;;;10.80;99.90;;;;;;10458829;28;20298;-78
2023/04/01 01:01:01;;;;;;;3.00;2.70;;;10.80;99.90;;;;;;10441564;28;20228;-79
2023/04/01 01:06:23;;;;;;;2.77;2.30;;;10.80;99.90;;;;;;10405916;28;20226;-79
2023/04/01 01:11:36;;;;;;;3.10;2.27;;;10.70;99.90;;;;;;10423177;28;20210;-79
2023/04/01 01:16:44;;;;;;;5.13;2.33;;;10.70;99.90;;;;;;10405172;28;20737;-79
2023/04/01 01:22:14;;;;;;;2.50;2.30;;;10.60;99.90;;;;;;10420749;28;20260;-80
2023/04/01 01:27:19;;;;;;;2.43;2.23;;;10.50;99.90;;;;;;10421173;28;20249;-78
2023/04/01 01:32:51;;;;;;;2.10;2.00;;;10.50;99.90;;;;;;10424600;28;20214;-79
2023/04/01 01:37:57;;;;;;;3.13;2.60;;;10.40;99.90;;;;;;10409140;28;20194;-78
2023/04/01 01:43:03;;;;;;;2.93;2.23;;;10.40;99.90;;;;;;10408035;28;20577;-77
2023/04/01 01:48:07;;;;;;;1.90;1.80;;;10.50;99.90;;;;;;10424294;28;20272;-77
2023/04/01 01:53:13;;;;;;;3.43;2.27;;;10.50;99.90;;;;;;10426677;28;20294;-77
2023/04/01 01:58:19;;;;;;;2.70;2.20;;;10.40;99.90;;;;;;10408341;28;20316;-77
2023/04/01 02:03:23;;;;;;;2.57;2.37;;;10.40;99.90;;;;;;10409143;28;20198;-78
2023/04/01 02:08:34;;;;;;;4.00;3.70;;;10.30;99.90;;;;;;10405638;28;20226;-78
2023/04/01 02:13:41;;;;;;;4.10;2.13;;;10.20;99.90;;;;;;10424511;28;20202;-77
2023/04/01 02:18:46;;;;;;;4.20;2.23;;;10.20;99.90;;;;;;10420577;28;20217;-78
2023/04/01 02:23:53;;;;;;;2.83;2.53;;;10.20;99.90;;;;;;10420822;28;20199;-77
2023/04/01 02:28:56;;;;;;;2.30;2.20;;;10.20;99.90;;;;;;10423210;28;20598;-77
2023/04/01 02:33:58;;;;;;;2.47;2.30;;;10.20;99.90;;;;;;10421288;28;20198;-78
2023/04/01 02:39:04;;;;;;;3.17;2.67;;;10.20;99.90;;;;;;10421313;28;20210;-78
2023/04/01 02:44:07;;;;;;;2.00;1.90;;;10.40;99.90;;;;;;10421893;28;20201;-79
2023/04/01 02:49:09;;;;;;;1.90;1.80;;;10.30;99.90;;;;;;10419226;28;20689;-79
2023/04/01 02:54:12;;;;;;;2.57;2.07;;;10.30;99.90;;;;;;10419982;28;20206;-78
2023/04/01 02:59:15;;;;;;;1.70;1.70;;;10.30;99.90;;;;;;10419188;28;20226;-80
2023/04/01 03:04:17;;;;;;;2.63;1.87;;;10.30;99.90;;;;;;10415359;28;20196;-79
2023/04/01 03:09:20;;;;;;;2.10;2.00;;;10.30;99.90;;;;;;10399065;28;20638;-80
2023/04/01 03:14:22;;;;;;;1.93;1.83;;;10.30;99.90;;;;;;10400039;28;20288;-79
2023/04/01 03:19:25;;;;;;;2.00;1.90;;;10.20;99.90;;;;;;10415296;28;20219;-78
2023/04/01 03:24:28;;;;;;;1.53;1.53;;;10.10;99.90;;;;;;10415602;28;20276;-80
2023/04/01 03:29:30;;;;;;;2.00;1.90;;;10.20;99.90;;;;;;10415780;28;20217;-81
2023/04/01 03:34:33;;;;;;;1.97;1.87;;;10.20;99.90;;;;;;10416830;28;20208;-79
2023/04/01 03:39:36;;;;;;;2.10;2.00;;;10.20;99.90;;;;;;10398570;28;20233;-79
2023/04/01 03:44:38;;;;;;;1.80;1.70;;;10.10;99.90;;;;;;10398643;28;20606;-80
2023/04/01 03:49:41;;;;;;;2.00;1.90;;;10.20;99.90;;;;;;10415586;28;20251;-81
2023/04/01 03:54:44;;;;;;;1.70;1.60;;;10.30;99.90;;;;;;10414830;28;20199;-80
2023/04/01 03:59:47;;;;;;;2.30;2.03;;;10.30;99.90;;;;;;10415083;28;20230;-81
2023/04/01 04:04:49;;;;;;;2.13;2.03;;;10.40;99.90;;;;;;10415953;28;20252;-80
2023/04/01 04:09:53;;;;;;;1.60;1.50;;;10.30;99.90;;;;;;10399181;28;20233;-79
2023/04/01 04:14:55;;;;;;;1.60;1.50;;;10.30;99.90;;;;;;10417590;28;20205;-80
2023/04/01 04:19:57;;;;;;;1.80;1.70;;;10.30;99.90;;;;;;10416257;28;20229;-79
2023/04/01 04:25:01;;;;;;;1.70;1.60;;;10.20;99.90;;;;;;10414311;28;20198;-80
2023/04/01 04:30:03;;;;;;;1.93;1.57;;;10.20;99.90;;;;;;10397536;28;20325;-79
2023/04/01 04:35:06;;;;;;;1.83;1.73;;;10.20;99.90;;;;;;10415739;28;20256;-79
2023/04/01 04:40:11;;;;;;;3.67;3.37;;;10.10;99.90;;;;;;10398928;28;20222;-78
2023/04/01 04:45:14;;;;;;;2.13;2.00;;;10.10;99.90;;;;;;10400790;28;20208;-80
2023/04/01 04:50:25;;;;;;;2.13;1.87;;;10.10;99.90;;;;;;10424252;28;20247;-81
2023/04/01 04:55:28;;;;;;;2.40;2.30;;;10.10;99.90;;;;;;10411451;28;20206;-79
2023/04/01 05:00:51;;;;;;;2.00;1.90;;;10.00;99.90;;;;;;10420799;28;20247;-80
2023/04/01 05:06:01;;;;;;;2.50;2.00;;;10.00;99.90;;;;;;10416171;28;20198;-79
2023/04/01 05:11:09;;;;;;;6.87;5.23;;;10.00;99.90;;;;;;10413336;28;20296;-81
2023/04/01 05:16:13;;;;;;;2.17;1.90;;;9.90;99.90;;;;;;10413782;28;20195;-80
2023/04/01 05:21:15;;;;;;;5.60;2.10;;;9.90;99.90;;;;;;10430212;28;20218;-80
2023/04/01 05:26:19;;;;;;;2.27;2.07;;;9.90;99.90;;;;;;10429769;28;20205;-81
2023/04/01 05:31:23;;;;;;;3.03;2.10;;;9.90;99.90;;;;;;10415182;28;20733;-82
2023/04/01 05:36:26;;;;;;;3.50;2.07;;;10.00;99.90;;;;;;10428047;28;20510;-82
2023/04/01 05:41:31;;;;;;;4.00;2.47;;;10.00;99.90;;;;;;10428571;28;20212;-80
2023/04/01 05:46:33;;;;;;;2.27;2.07;;;10.10;99.90;;;;;;10435555;28;20206;-79
2023/04/01 05:51:57;;;;;;;2.30;2.20;;;10.20;99.90;;;;;;10435852;28;20224;-80
2023/04/01 05:57:00;;;;;;;3.53;1.43;;;10.30;99.90;;;;;;10436180;28;20209;-80
2023/04/01 06:02:02;;;;;;;2.00;1.80;;;10.40;99.90;;;;;;10437098;28;20299;-80
2023/04/01 06:07:11;;;;;;;1.80;1.70;;;10.40;99.90;;;;;;10442324;28;20701;-80
2023/04/01 06:12:39;;;;;;;2.20;2.00;;;10.50;99.90;;;;;;10432145;28;20267;-79
2023/04/01 06:17:53;;;;;;;2.30;1.70;;;10.60;99.90;;;;;;10432005;28;20204;-77
2023/04/01 06:23:19;;;;;;;3.40;1.83;;;10.70;99.90;;;;;;10434288;28;20235;-80
2023/04/01 06:29:03;;;;;;;4.70;2.03;;;10.80;99.90;;;;;;10431911;28;20690;-80
2023/04/01 06:34:32;;;;;;;2.10;1.90;;;10.90;99.90;;;;;;10396002;28;20204;-80
2023/04/01 06:39:56;;;;;;;2.70;1.67;;;11.00;99.90;;;;;;10417021;28;20712;-80
2023/04/01 06:45:11;;;;;;;2.67;1.77;;;11.10;99.90;;;;;;10416178;28;20206;-80
2023/04/01 06:50:41;;;;;;;2.77;1.60;;;11.10;99.90;;;;;;10438627;28;20218;-80
2023/04/01 06:55:48;;;;;;;2.30;2.10;;;11.20;99.90;;;;;;10455963;28;20658;-78
2023/04/01 07:01:26;;;;;;;1.87;1.60;;;11.30;99.90;;;;;;10447961;28;20219;-78
2023/04/01 07:06:33;;;;;;;1.80;1.70;;;11.30;99.90;;;;;;10443278;28;20207;-79
2023/04/01 07:11:39;;;;;;;3.00;1.80;;;11.30;99.90;;;;;;10420026;28;20245;-80
2023/04/01 07:16:47;;;;;;;2.30;1.70;;;11.40;99.90;;;;;;10418635;28;20202;-80
2023/04/01 07:21:53;;;;;;;1.60;1.50;;;11.50;99.90;;;;;;10416947;28;20248;-78
2023/04/01 07:27:10;;;;;;;1.93;1.60;;;11.50;99.90;;;;;;10415390;28;20202;-78
2023/04/01 07:32:28;;;;;;;1.90;1.60;;;11.60;99.90;;;;;;10415421;28;20229;-79
2023/04/01 07:37:40;;;;;;;2.30;1.40;;;11.60;99.90;;;;;;10415410;28;20224;-78
2023/04/01 07:42:56;;;;;;;1.80;1.70;;;11.60;99.90;;;;;;10415509;28;20218;-78
2023/04/01 07:48:10;;;;;;;1.60;1.50;;;11.60;99.90;;;;;;10397923;28;20206;-78
2023/04/01 07:53:19;;;;;;;2.60;2.00;;;11.60;99.90;;;;;;10414315;28;20198;-78
2023/04/01 07:58:31;;;;;;;3.83;1.40;;;11.70;99.90;;;;;;10414685;28;20228;-79
2023/04/01 08:03:49;;;;;;;4.97;1.93;;;11.70;99.90;;;;;;10415644;28;20576;-78
2023/04/01 08:09:02;;;;;;;1.50;1.30;;;11.80;99.90;;;;;;10399864;28;20524;-81
2023/04/01 08:14:34;;;;;;;1.30;1.20;;;11.90;99.90;;;;;;10419245;28;20199;-80
2023/04/01 08:19:56;;;;;;;1.67;1.57;;;12.00;99.90;;;;;;10419528;28;20217;-80
2023/04/01 08:25:07;;;;;;;1.70;1.60;;;12.00;99.90;;;;;;10401077;28;20537;-80
2023/04/01 08:30:19;;;;;;;2.20;1.57;;;12.10;99.90;;;;;;10424336;28;20686;-81
2023/04/01 08:35:30;;;;;;;3.10;1.97;;;12.20;99.90;;;;;;10425931;28;20197;-80
2023/04/01 08:40:48;;;;;;;2.80;1.67;;;12.30;99.90;;;;;;10422954;28;20222;-80
2023/04/01 08:46:07;;;;;;;1.90;1.73;;;12.20;99.90;;;;;;10401126;28;20205;-81
2023/04/01 08:51:38;;;;;;;2.27;1.87;;;12.00;99.90;;;;;;10395487;28;20633;-78
2023/04/01 08:56:48;;;;;;;1.83;1.47;;;11.70;99.90;;;;;;10373373;28;20282;-81
2023/04/01 09:02:25;;;;;;;1.50;1.40;;;11.40;99.90;;;;;;10492880;22;20225;-84
2023/04/01 09:07:41;;;;;;;2.90;1.93;;;11.20;99.90;;;;;;10463755;28;20194;-83
2023/04/01 09:12:59;;;;;;;1.87;1.77;;;11.10;99.90;;;;;;10457234;28;20217;-84
2023/04/01 09:18:20;;;;;;;1.40;1.30;;;11.10;99.90;;;;;;10468699;28;20653;-83
2023/04/01 09:23:43;;;;;;;1.43;1.23;;;11.00;99.90;;;;;;10466498;28;20209;-81
2023/04/01 09:28:55;;;;;;;1.60;1.50;;;11.20;99.90;;;;;;10446708;28;20214;-81
2023/04/01 09:34:16;;;;;;;1.67;1.60;;;11.20;99.90;;;;;;10461909;28;20197;-81
2023/04/01 09:39:39;;;;;;;1.47;1.17;;;11.40;99.90;;;;;;10472438;28;20220;-83
2023/04/01 09:44:54;;;;;;;1.60;1.50;;;11.70;99.90;;;;;;10453275;28;20321;-83
2023/04/01 09:50:17;;;;;;;0.80;0.80;;;11.90;99.90;;;;;;10463602;28;20225;-82
2023/04/01 09:56:07;;;;;;;1.20;1.20;;;11.90;99.90;;;;;;10430559;28;20194;-82
2023/04/01 10:01:43;;;;;;;1.60;1.50;;;11.80;99.90;;;;;;10460895;28;20237;-81
2023/04/01 10:07:27;;;;;;;1.73;1.63;;;11.80;99.90;;;;;;10445515;28;20313;-82
2023/04/01 10:13:15;;;;;;;1.37;1.30;;;11.70;99.90;;;;;;10433587;28;20214;-82
2023/04/01 10:18:43;;;;;;;1.10;1.10;;;11.80;99.90;;;;;;10374089;28;20198;-84
2023/04/01 10:24:11;;;;;;;1.37;1.27;;;11.80;99.90;;;;;;10462531;28;20209;-83
2023/04/01 10:29:58;;;;;;;0.80;0.80;;;12.00;99.90;;;;;;10463760;28;20320;-82
2023/04/01 10:35:24;;;;;;;1.20;1.20;;;12.30;99.90;;;;;;10450687;28;20251;-84
2023/04/01 10:40:53;;;;;;;1.30;1.20;;;12.60;99.90;;;;;;10454134;28;20222;-83
2023/04/01 10:46:57;;;;;;;2.60;1.17;;;12.90;99.90;;;;;;10448236;28;20240;-84
2023/04/01 10:52:37;;;;;;;1.47;1.10;;;13.00;99.90;;;;;;10446979;28;20249;-83
2023/04/01 10:58:45;;;;;;;1.20;1.20;;;13.10;99.90;;;;;;10462613;28;20264;-82
2023/04/01 11:04:54;;;;;;;1.10;1.10;;;13.10;99.90;;;;;;10376182;28;20220;-82
2023/04/01 11:11:19;;;;;;;1.10;1.10;;;13.00;99.90;;;;;;10440840;28;20304;-82
2023/04/01 11:16:59;;;;;;;1.57;1.47;;;12.80;99.90;;;;;;10345396;28;20205;-82
2023/04/01 11:22:20;;;;;;;1.10;1.10;;;12.80;99.90;;;;;;10438002;28;20221;-84
2023/04/01 11:27:49;;;;;;;1.23;1.13;;;12.90;99.90;;;;;;10456882;28;20573;-83
2023/04/01 11:32:57;;;;;;;1.43;1.33;;;13.30;99.90;;;;;;10456401;28;20213;-84
2023/04/01 11:38:10;;;;;;;1.20;1.10;;;13.60;99.10;;;;;;10451886;28;20198;-83
2023/04/01 11:43:33;;;;;;;0.80;0.80;;;13.80;99.50;;;;;;10458823;28;20213;-84
2023/04/01 11:49:13;;;;;;;1.10;1.10;;;13.90;99.20;;;;;;10440013;28;20245;-83
2023/04/01 11:54:48;;;;;;;1.20;1.20;;;14.00;98.20;;;;;;10462473;28;20265;-83
2023/04/01 12:00:19;;;;;;;1.47;1.37;;;14.00;98.30;;;;;;10456295;28;20237;-83
2023/04/01 12:05:41;;;;;;;1.27;1.20;;;14.00;98.30;;;;;;10415792;28;20590;-83
2023/04/01 12:10:53;;;;;;;0.97;0.97;;;13.90;98.80;;;;;;10484468;28;20233;-82
2023/04/01 12:16:21;;;;;;;1.40;1.40;;;13.80;97.90;;;;;;10467994;28;20205;-83
2023/04/01 12:21:29;;;;;;;1.83;1.50;;;13.50;99.10;;;;;;10457900;28;20221;-84
2023/04/01 12:26:43;;;;;;;1.30;1.30;;;13.30;99.80;;;;;;10450160;28;20202;-83
2023/04/01 12:31:57;;;;;;;1.53;1.20;;;13.20;99.90;;;;;;10466715;28;20339;-83
2023/04/01 12:37:08;;;;;;;1.40;1.27;;;13.20;99.90;;;;;;10466617;28;20197;-83
2023/04/01 12:42:19;;;;;;;1.23;1.20;;;13.10;99.90;;;;;;10466936;28;20242;-82
2023/04/01 12:47:43;;;;;;;1.23;1.20;;;13.20;99.90;;;;;;10447756;28;20207;-82
2023/04/01 12:53:04;;;;;;;1.00;1.00;;;13.30;99.90;;;;;;10448699;28;20221;-84
2023/04/01 12:58:46;;;;;;;1.23;1.13;;;13.50;99.90;;;;;;10451672;28;20202;-82
2023/04/01 13:04:08;;;;;;;1.40;1.30;;;13.80;99.70;;;;;;10467482;28;20605;-84
2023/04/01 13:09:27;;;;;;;4.50;4.20;;;13.90;98.70;;;;;;10466550;28;20221;-83
2023/04/01 13:14:41;;;;;;;1.27;1.27;;;14.00;98.40;;;;;;10423143;28;20198;-81
2023/04/01 13:19:52;;;;;;;0.80;0.80;;;14.20;97.20;;;;;;10440106;28;20665;-83
2023/04/01 13:25:00;;;;;;;1.10;1.10;;;14.20;96.60;;;;;;10459643;28;20210;-81
2023/04/01 13:30:18;;;;;;;1.47;1.37;;;14.10;97.40;;;;;;10441339;28;20275;-83
2023/04/01 13:35:35;;;;;;;1.33;1.27;;;14.00;97.50;;;;;;10467034;28;20280;-81
2023/04/01 13:40:46;;;;;;;0.90;0.90;;;14.00;96.70;;;;;;10472611;28;20241;-83
2023/04/01 13:46:23;;;;;;;1.10;1.10;;;14.00;97.70;;;;;;10467276;28;20205;-85
2023/04/01 13:52:07;;;;;;;1.20;1.10;;;14.10;97.10;;;;;;10468830;28;20689;-84
2023/04/01 13:57:24;;;;;;;1.20;1.13;;;14.10;97.00;;;;;;10476332;28;20225;-84
2023/04/01 14:02:45;;;;;;;1.10;1.10;;;14.00;97.50;;;;;;10469250;28;20285;-84
2023/04/01 14:08:00;;;;;;;1.30;1.20;;;14.00;97.10;;;;;;10469535;28;20280;-83
2023/04/01 14:13:10;;;;;;;1.00;1.00;;;14.00;97.10;;;;;;10467050;28;20226;-82
2023/04/01 14:18:30;;;;;;;0.80;0.80;;;14.00;97.10;;;;;;10476808;28;20232;-81
2023/04/01 14:23:50;;;;;;;16.90;13.57;;;14.00;97.10;;;;;;10466863;28;20487;-83
2023/04/01 14:29:03;;;;;;;1.30;1.30;;;14.00;97.60;;;;;;10468432;28;20747;-83
2023/04/01 14:34:19;;;;;;;1.10;1.10;;;13.90;97.10;;;;;;10463734;28;20198;-83
2023/04/01 14:39:45;;;;;;;1.27;1.17;;;13.80;97.40;;;;;;10447380;28;20213;-84
2023/04/01 14:45:13;;;;;;;1.47;1.37;;;13.60;98.20;;;;;;10463938;28;20223;-83
2023/04/01 14:50:18;;;;;;;2.10;2.00;;;13.40;98.90;;;;;;10474189;28;20263;-83
2023/04/01 14:55:33;;;;;;;2.63;2.43;;;13.40;98.90;;;;;;10472626;28;20206;-84
2023/04/01 15:00:55;;;;;;;1.40;1.30;;;13.20;99.90;;;;;;10477877;28;20224;-82
2023/04/01 15:06:15;;;;;;;1.60;1.50;;;13.30;99.90;;;;;;10462466;28;20205;-83
2023/04/01 15:11:38;;;;;;;1.10;1.10;;;13.30;99.00;;;;;;10461548;28;20257;-83
2023/04/01 15:16:55;;;;;;;1.33;1.23;;;13.30;99.50;;;;;;10460476;28;20208;-84
2023/04/01 15:22:16;;;;;;;2.00;1.40;;;13.40;99.20;;;;;;10470334;28;20247;-83
2023/04/01 15:27:36;;;;;;;1.40;1.40;;;13.40;99.10;;;;;;10458865;28;20602;-82
2023/04/01 15:32:52;;;;;;;1.60;1.60;;;13.40;98.20;;;;;;10419420;28;20252;-81
2023/04/01 15:37:57;;;;;;;1.20;1.20;;;13.40;98.00;;;;;;10457023;28;20251;-82
2023/04/01 15:43:13;;;;;;;1.30;1.20;;;13.30;98.10;;;;;;10456434;28;20212;-82
2023/04/01 15:48:27;;;;;;;1.40;1.30;;;13.30;97.80;;;;;;10453874;28;20258;-82
2023/04/01 15:53:42;;;;;;;1.43;1.40;;;13.30;98.40;;;;;;10454417;28;20220;-82
2023/04/01 15:58:55;;;;;;;1.30;1.30;;;13.20;98.30;;;;;;10457178;28;20257;-83
2023/04/01 16:04:08;;;;;;;1.40;1.40;;;13.20;98.50;;;;;;10460896;28;20244;-82
2023/04/01 16:09:25;;;;;;;1.20;1.10;;;13.10;98.10;;;;;;10459819;28;20228;-82
2023/04/01 16:14:41;;;;;;;1.13;1.13;;;13.00;97.80;;;;;;10464599;28;20206;-83
2023/04/01 16:19:52;;;;;;;1.30;1.20;;;13.00;98.30;;;;;;10464295;28;20235;-83
2023/04/01 16:25:00;;;;;;;1.37;1.37;;;13.00;97.80;;;;;;10462643;28;20200;-83
2023/04/01 16:30:24;;;;;;;1.70;1.60;;;13.00;97.80;;;;;;10463016;28;20222;-84
2023/04/01 16:35:40;;;;;;;1.50;1.50;;;12.90;99.40;;;;;;10469411;28;20202;-84
2023/04/01 16:40:47;;;;;;;1.60;1.50;;;13.00;98.90;;;;;;10467180;28;20213;-83
2023/04/01 16:46:14;;;;;;;1.30;1.30;;;12.90;98.90;;;;;;10461596;28;20242;-83
2023/04/01 16:51:17;;;;;;;1.57;1.47;;;12.90;99.50;;;;;;10475624;28;20220;-84
2023/04/01 16:56:23;;;;;;;1.80;1.70;;;12.90;99.50;;;;;;10494630;28;20276;-82
2023/04/01 17:01:30;;;;;;;2.20;2.10;;;12.90;99.70;;;;;;10475776;28;20221;-83
2023/04/01 17:06:41;;;;;;;2.47;2.10;;;12.90;99.10;;;;;;10467433;28;20502;-82
2023/04/01 17:11:55;;;;;;;2.27;2.17;;;12.80;99.60;;;;;;10466310;28;20232;-83
2023/04/01 17:17:11;;;;;;;1.50;1.40;;;12.80;99.40;;;;;;10457442;28;20276;-83
2023/04/01 17:22:26;;;;;;;1.90;1.80;;;12.80;99.30;;;;;;10453947;28;20287;-81
2023/04/01 17:27:39;;;;;;;2.60;2.40;;;12.80;99.50;;;;;;10452086;28;20531;-83
2023/04/01 17:33:00;;;;;;;2.60;2.40;;;12.70;99.90;;;;;;10462398;28;20248;-83
2023/04/01 17:38:14;;;;;;;1.80;1.70;;;12.70;99.90;;;;;;10461833;28;20565;-82
2023/04/01 17:43:27;;;;;;;1.67;1.57;;;12.70;98.50;;;;;;10463965;28;20214;-82
2023/04/01 17:48:42;;;;;;;2.10;2.00;;;12.60;99.90;;;;;;10461172;28;20236;-81
2023/04/01 17:53:53;;;;;;;2.07;1.97;;;12.60;99.50;;;;;;10458171;28;20216;-83
2023/04/01 17:59:03;;;;;;;2.70;2.47;;;12.60;99.80;;;;;;10450384;28;20222;-82
2023/04/01 18:04:38;;;;;;;2.10;2.00;;;12.60;99.90;;;;;;10458794;28;20542;-83
2023/04/01 18:09:53;;;;;;;2.50;1.90;;;12.60;99.90;;;;;;10458942;28;20535;-82
2023/04/01 18:15:12;;;;;;;3.43;2.73;;;12.60;99.90;;;;;;10459370;28;20189;-83
2023/04/01 18:20:32;;;;;;;2.60;2.40;;;12.50;99.90;;;;;;10461510;28;20279;-83
2023/04/01 18:25:40;;;;;;;2.57;2.30;;;12.50;99.90;;;;;;10428685;28;20205;-84
2023/04/01 18:30:45;;;;;;;3.57;2.63;;;12.40;99.90;;;;;;10485943;28;20578;-84
2023/04/01 18:35:54;;;;;;;4.20;2.23;;;12.40;99.90;;;;;;10474030;28;20742;-82
2023/04/01 18:41:11;;;;;;;1.90;1.37;;;12.30;99.90;;;;;;10469196;28;20221;-83
2023/04/01 18:46:22;;;;;;;2.40;2.30;;;12.20;99.90;;;;;;10474445;28;20260;-83
2023/04/01 18:51:35;;;;;;;2.37;2.27;;;12.10;99.90;;;;;;10470764;28;20245;-82
2023/04/01 18:56:39;;;;;;;4.77;4.37;;;12.00;99.90;;;;;;10467899;28;20237;-83
2023/04/01 19:01:49;;;;;;;3.63;2.07;;;11.90;99.90;;;;;;10445535;28;20218;-82
2023/04/01 19:06:56;;;;;;;2.00;1.90;;;11.80;99.90;;;;;;10468250;28;20227;-83
2023/04/01 19:12:25;;;;;;;2.00;1.70;;;11.70;99.90;;;;;;10464535;28;20313;-83
2023/04/01 19:17:42;;;;;;;2.23;2.13;;;11.60;99.90;;;;;;10483709;28;20680;-83
2023/04/01 19:23:02;;;;;;;2.40;2.20;;;11.50;99.90;;;;;;10467775;28;20214;-83
2023/04/01 19:28:21;;;;;;;2.77;2.63;;;11.50;99.90;;;;;;10456479;28;20202;-84
2023/04/01 19:33:36;;;;;;;3.83;3.50;;;11.40;99.90;;;;;;10446420;28;20315;-84
2023/04/01 19:38:42;;;;;;;3.50;3.17;;;11.40;99.90;;;;;;10452031;28;20279;-83
2023/04/01 19:44:00;;;;;;;2.47;2.30;;;11.40;99.90;;;;;;10454299;28;20295;-83
2023/04/01 19:49:27;;;;;;;2.63;2.43;;;11.30;99.90;;;;;;10471788;28;20217;-83
2023/04/01 19:54:40;;;;;;;7.07;6.47;;;11.30;99.90;;;;;;10458017;28;20198;-83
2023/04/01 19:59:51;;;;;;;3.17;2.97;;;11.30;99.90;;;;;;10493648;28;20224;-83
2023/04/01 20:04:56;;;;;;;3.00;2.80;;;11.30;99.90;;;;;;10484744;28;20194;-83
2023/04/01 20:10:12;;;;;;;2.37;2.27;;;11.30;99.90;;;;;;10463458;28;20293;-82
2023/04/01 20:15:28;;;;;;;1.93;1.83;;;11.30;99.90;;;;;;10453566;28;20197;-82
2023/04/01 20:20:31;;;;;;;3.63;3.33;;;11.40;99.90;;;;;;10459495;28;20669;-82
2023/04/01 20:25:42;;;;;;;2.03;1.83;;;11.40;99.90;;;;;;10465126;28;20198;-82
2023/04/01 20:31:11;;;;;;;2.20;2.10;;;11.40;99.90;;;;;;10471989;28;20261;-82
2023/04/01 20:36:26;;;;;;;1.80;1.70;;;11.40;99.90;;;;;;10458247;28;20213;-81
2023/04/01 20:41:40;;;;;;;2.13;2.03;;;11.40;99.90;;;;;;10471693;28;20236;-82
2023/04/01 20:46:50;;;;;;;1.97;1.87;;;11.40;99.90;;;;;;10472321;28;20274;-82
2023/04/01 20:51:59;;;;;;;2.70;2.60;;;11.40;99.90;;;;;;10468119;28;20520;-83
2023/04/01 20:57:07;;;;;;;3.43;3.23;;;11.40;99.90;;;;;;10471716;28;20263;-84
2023/04/01 21:02:29;;;;;;;2.43;2.33;;;11.50;99.90;;;;;;10474388;28;20218;-83
2023/04/01 21:07:37;;;;;;;3.57;2.90;;;11.50;99.90;;;;;;10478493;28;20204;-81
2023/04/01 21:12:48;;;;;;;2.30;2.20;;;11.50;99.90;;;;;;10474469;28;20252;-83
2023/04/01 21:18:00;;;;;;;2.10;2.00;;;11.60;99.90;;;;;;10480779;28;20208;-84
2023/04/01 21:23:17;;;;;;;2.90;2.57;;;11.50;99.90;;;;;;10493540;28;20205;-82
2023/04/01 21:29:03;;;;;;;1.90;1.80;;;11.50;99.90;;;;;;10436086;28;20209;-83
2023/04/01 21:34:42;;;;;;;1.63;1.53;;;11.40;99.90;;;;;;10472542;28;20452;-82
2023/04/01 21:40:01;;;;;;;2.00;1.90;;;11.30;99.90;;;;;;10479214;28;20218;-81
2023/04/01 21:45:17;;;;;;;1.73;1.63;;;11.30;99.90;;;;;;10466158;28;20186;-83
2023/04/01 21:50:42;;;;;;;1.83;1.73;;;11.30;99.90;;;;;;10463813;28;20241;-83
2023/04/01 21:56:11;;;;;;;2.00;1.90;;;11.30;99.90;;;;;;10464037;28;20190;-82
2023/04/01 22:01:30;;;;;;;1.60;1.50;;;11.30;99.90;;;;;;10464719;28;20268;-82
2023/04/01 22:06:35;;;;;;;1.60;1.50;;;11.40;99.90;;;;;;10463677;28;20265;-82
2023/04/01 22:11:49;;;;;;;1.97;1.87;;;11.40;99.90;;;;;;10465676;28;20296;-83
2023/04/01 22:17:13;;;;;;;1.53;1.43;;;11.30;99.90;;;;;;10468274;28;20190;-83
2023/04/01 22:22:20;;;;;;;1.87;1.77;;;11.30;99.90;;;;;;10450451;28;20209;-83
2023/04/01 22:27:30;;;;;;;1.77;1.67;;;11.20;99.90;;;;;;10471456;28;20190;-81
2023/04/01 22:32:41;;;;;;;1.60;1.50;;;11.20;99.90;;;;;;10469883;28;20222;-83
2023/04/01 22:37:53;;;;;;;1.37;1.27;;;11.20;99.90;;;;;;10463841;28;20203;-82
2023/04/01 22:43:01;;;;;;;1.50;1.50;;;11.20;99.90;;;;;;10465612;28;20214;-82
2023/04/01 22:48:12;;;;;;;1.63;1.50;;;11.20;99.90;;;;;;10462819;28;20248;-82
2023/04/01 22:53:26;;;;;;;1.30;1.30;;;11.30;99.90;;;;;;10448059;28;20218;-83
2023/04/01 22:58:34;;;;;;;1.63;1.53;;;11.30;99.90;;;;;;10467233;28;20198;-82
2023/04/01 23:03:41;;;;;;;1.27;1.23;;;11.30;99.90;;;;;;10478814;28;20198;-81
2023/04/01 23:09:04;;;;;;;1.77;1.10;;;11.30;99.90;;;;;;10480111;28;20281;-83
2023/04/01 23:14:33;;;;;;;2.50;1.40;;;11.20;99.90;;;;;;10468090;28;20218;-83
2023/04/01 23:19:43;;;;;;;1.20;1.20;;;11.20;99.90;;;;;;10472087;28;20221;-83
2023/04/01 23:24:51;;;;;;;1.30;1.20;;;11.20;99.90;;;;;;10464955;28;20217;-83
2023/04/01 23:29:53;;;;;;;1.87;1.20;;;11.20;99.90;;;;;;10456945;28;20300;-80
2023/04/01 23:34:59;;;;;;;1.03;1.03;;;11.20;99.90;;;;;;10464956;28;20222;-80
2023/04/01 23:40:02;;;;;;;1.70;1.60;;;11.20;99.90;;;;;;10458426;28;20210;-81
2023/04/01 23:45:13;;;;;;;1.60;1.50;;;11.20;99.90;;;;;;10453519;28;20259;-80
2023/04/01 23:50:20;;;;;;;1.00;1.00;;;11.20;99.90;;;;;;10455071;28;20249;-81
2023/04/01 23:55:26;;;;;;;1.77;1.67;;;11.20;99.90;;;;;;10459314;28;20252;-81
